Terminal Aerodrome Forecast
Issued by NWS Bismarck, ND

Home | Current Version | Previous Version | Text Only | Print | Product List | Glossary Off
Versions: 1 2 3 4 5 6 7 8 9 10 11 12 13 14 15 16 17 18 19 20

000
FTUS43 KBIS 011200 AAA
TAFISN
TAF AMD
KISN 011228Z 0112/0212 22004KT P6SM SCT020
     FM011500 30008KT P6SM OVC015
      TEMPO 0115/0118 2SM -SN
     FM012200 30008KT P6SM SCT040=

USA.gov is the U.S. government's official web portal to all federal, state and local government web resources and services.